Aérodrome :
LOGIN :

S'inscrire | Disclaimer

   EN    FR    IT 

 










Légende :    VFR   VFR Marginal   IFR   IFR Intensif   IFR Très Intensif
Visi : 
Plafond : 
>= 8 km
>= 3000ft
5 à 8 km
1000 à 3000 ft
1500m à 5 km
500 à 1000 ft
800 à 1500m
200 à 500 ft
< 800m
< 200 ft
Symboles :   Orages  Brouillard  Fortes neiges  Fortes précipitations  Vent > 20 kt
SIGMETs :   Divers  Orages  Givrage  Turbulence  Onde Orograph.  Cendres Volcan.







- Altitude de l'aérodrome : 157 ft
- Code IATA : SXF


EDDB - Berlin Schönefeld

DERNIER METAR :
  • 120320Z 34009KT 9999 BKN008 BKN032 03/02 Q1020 NOSIG

METARs EXPIRÉS :
  • 120250Z 34009KT 9999 BKN008 BKN034 03/02 Q1020 NOSIG
  • 120220Z 33009KT 9999 -RA BKN008 BKN029 03/02 Q1020 NOSIG
  • 120150Z 34010KT 9999 -RA BKN008 03/02 Q1020 NOSIG
  • 120120Z 33010KT 9999 BKN009 03/02 Q1019 NOSIG
  • 120050Z 33010KT 9999 BKN012 03/02 Q1019 TEMPO BKN009

TAF TAF EDDB
Valide du 12 à 00h jusqu'au 13 à 00h UTC


112300Z 1200/1224 33009KT 9999 BKN015
TEMPO 1200/1210 BKN008
PROB30
TEMPO 1201/1208 4000 -RADZ BKN004
BECMG 1202/1204 03006KT
Pas de NOTAMs connus pour ce terrain.



MET'MAP, la Météo Aéronautique d'un coup d'oeil ! - Copyright ORBIFLY Décembre 2007 - Disclaimer

ORBIFLY MET'MAP TEAM :

Programmation & Développement : Alexandra Zaïnal
Conception & Développement : Baudouin d'Aumeries
Co-Programmation & Développement : Marc-Olivier Méhu
Soutien technique & logistique : Manuel Goepfert

Contact : metmap@orbifly.com




SOURCES & CREDITS :

   NOAA